Burnwell, Kentucky
Current Conditions -  °F | °C
As of 9:35 AM on Thursday 27 Nov 2014 (Local Time) from KPBX Reporting Station
Light Snow Light Snow  
Wind Chill: 24°   Ceiling: 400
Heat Index: 31°   Visibility: 4mi
Dew Point: 30°   Wind: 7mph
Humidity: 96%   Direction: 260°W
Pressure: 30.16"   Gusts: NA
Location:  37.632°N, 82.2603°W
Report Text: KPBX 271435Z AUTO 26006KT 4SM -SN OVC004 00/M01 A3016 RMK AO2 T10051010
Loading
Personal Weather Stations






























Interactive Weather Map New forecast layout! Learn more

10-Day Weather Forecast

Advertisements
Track Severe Weather on mobile